OAL195 LGMK-LGAV
Flight info
| Callsign | OAL195 |
|---|---|
| Flight time | 0h 24m |
| Altitude | 12000 |
| Route | VARIX |
| Aircraft | B737/M-SDE2E3FGHIRWXY/LB1 |
Departure
| Time | 2026-04-21 14:51 |
|---|---|
| Airport | Mykonos Island National Airport (LGMK) |
Arrival
| Time | 2026-04-21 15:15 |
|---|---|
| Airport | Athens Eleftherios Venizelos International Airport (LGAV) |
| Time | Latitude | Longitude | Altitude | Speed | Heading |
|---|---|---|---|---|---|
| 2026-04-21 14:30 | 37.43543 | 25.34629 | 406 ft | 0 kts | 251° |
| 2026-04-21 14:34 | 37.43545 | 25.34634 | 406 ft | 0 kts | 251° |
| 2026-04-21 14:45 | 37.43550 | 25.34655 | 401 ft | 4 kts | 260° |
| 2026-04-21 14:45 | 37.43549 | 25.34685 | 402 ft | 4 kts | 306° |
| 2026-04-21 14:46 | 37.43539 | 25.34696 | 402 ft | 1 kts | 341° |
| 2026-04-21 14:47 | 37.43541 | 25.34696 | 402 ft | 1 kts | 341° |
| 2026-04-21 14:48 | 37.43566 | 25.34685 | 404 ft | 7 kts | 341° |
| 2026-04-21 14:48 | 37.43630 | 25.34682 | 407 ft | 12 kts | 25° |
| 2026-04-21 14:48 | 37.43708 | 25.34729 | 410 ft | 14 kts | 360° |
| 2026-04-21 14:48 | 37.43816 | 25.34687 | 410 ft | 18 kts | 339° |
| 2026-04-21 14:49 | 37.43950 | 25.34629 | 408 ft | 23 kts | 342° |
| 2026-04-21 14:49 | 37.44093 | 25.34563 | 407 ft | 21 kts | 342° |
| 2026-04-21 14:49 | 37.44208 | 25.34515 | 404 ft | 18 kts | 341° |
| 2026-04-21 14:49 | 37.44301 | 25.34451 | 403 ft | 11 kts | 22° |
| 2026-04-21 14:50 | 37.44301 | 25.34476 | 403 ft | 4 kts | 131° |
| 2026-04-21 14:50 | 37.44277 | 25.34484 | 404 ft | 0 kts | 160° |
| 2026-04-21 14:50 | 37.44268 | 25.34488 | 403 ft | 11 kts | 160° |
| 2026-04-21 14:50 | 37.43937 | 25.34634 | 410 ft | 92 kts | 161° |
| 2026-04-21 14:51 | 37.43098 | 25.35011 | 429 ft | 160 kts | 161° |
| 2026-04-21 14:51 | 37.41960 | 25.35507 | 1110 ft | 173 kts | 165° |
| 2026-04-21 14:51 | 37.40841 | 25.35990 | 2337 ft | 168 kts | 164° |
| 2026-04-21 14:51 | 37.39659 | 25.36520 | 3021 ft | 196 kts | 163° |
| 2026-04-21 14:52 | 37.38338 | 25.37114 | 3785 ft | 205 kts | 163° |
| 2026-04-21 14:52 | 37.36971 | 25.37730 | 4599 ft | 211 kts | 163° |
| 2026-04-21 14:52 | 37.35555 | 25.38249 | 5405 ft | 214 kts | 180° |
| 2026-04-21 14:52 | 37.34151 | 25.37825 | 6169 ft | 215 kts | 211° |
| 2026-04-21 14:53 | 37.33049 | 25.36474 | 6681 ft | 230 kts | 240° |
| 2026-04-21 14:53 | 37.32258 | 25.34686 | 7545 ft | 236 kts | 243° |
| 2026-04-21 14:53 | 37.31492 | 25.32854 | 8537 ft | 238 kts | 244° |
| 2026-04-21 14:53 | 37.30720 | 25.31006 | 9503 ft | 241 kts | 245° |
| 2026-04-21 14:54 | 37.29926 | 25.29120 | 10394 ft | 245 kts | 245° |
| 2026-04-21 14:54 | 37.29124 | 25.27225 | 11285 ft | 247 kts | 245° |
| 2026-04-21 14:54 | 37.28312 | 25.25311 | 11725 ft | 248 kts | 245° |
| 2026-04-21 14:54 | 37.27518 | 25.23399 | 11946 ft | 254 kts | 251° |
| 2026-04-21 14:55 | 37.27253 | 25.21114 | 11990 ft | 282 kts | 278° |
| 2026-04-21 14:55 | 37.27976 | 25.18702 | 11993 ft | 313 kts | 301° |
| 2026-04-21 14:55 | 37.29242 | 25.16330 | 11970 ft | 335 kts | 304° |
| 2026-04-21 14:55 | 37.30602 | 25.13930 | 11966 ft | 338 kts | 304° |
| 2026-04-21 14:56 | 37.31958 | 25.11526 | 11954 ft | 336 kts | 304° |
| 2026-04-21 14:56 | 37.33414 | 25.09237 | 11957 ft | 336 kts | 314° |
| 2026-04-21 14:56 | 37.35174 | 25.07303 | 11970 ft | 337 kts | 318° |
| 2026-04-21 14:56 | 37.36972 | 25.05408 | 11958 ft | 337 kts | 318° |
| 2026-04-21 14:57 | 37.38770 | 25.03515 | 11964 ft | 337 kts | 318° |
| 2026-04-21 14:57 | 37.40566 | 25.01619 | 11967 ft | 337 kts | 318° |
| 2026-04-21 14:57 | 37.42361 | 24.99716 | 11956 ft | 337 kts | 318° |
| 2026-04-21 14:57 | 37.44155 | 24.97806 | 11966 ft | 337 kts | 318° |
| 2026-04-21 14:58 | 37.45948 | 24.95892 | 11966 ft | 337 kts | 318° |
| 2026-04-21 14:58 | 37.47734 | 24.93982 | 11969 ft | 337 kts | 318° |
| 2026-04-21 14:58 | 37.49493 | 24.92096 | 11965 ft | 337 kts | 318° |
| 2026-04-21 14:58 | 37.51299 | 24.90159 | 11966 ft | 337 kts | 318° |
| 2026-04-21 14:59 | 37.53060 | 24.88269 | 11967 ft | 337 kts | 318° |
| 2026-04-21 14:59 | 37.54843 | 24.86354 | 11967 ft | 337 kts | 318° |
| 2026-04-21 14:59 | 37.56625 | 24.84437 | 11967 ft | 337 kts | 318° |
| 2026-04-21 14:59 | 37.58410 | 24.82516 | 11959 ft | 337 kts | 318° |
| 2026-04-21 15:00 | 37.60196 | 24.80593 | 11961 ft | 337 kts | 318° |
| 2026-04-21 15:00 | 37.61980 | 24.78670 | 11949 ft | 338 kts | 318° |
| 2026-04-21 15:00 | 37.63767 | 24.76744 | 11957 ft | 338 kts | 318° |
| 2026-04-21 15:00 | 37.65553 | 24.74817 | 11900 ft | 338 kts | 318° |
| 2026-04-21 15:01 | 37.67357 | 24.72868 | 11376 ft | 343 kts | 318° |
| 2026-04-21 15:01 | 37.69155 | 24.70926 | 10867 ft | 334 kts | 318° |
| 2026-04-21 15:01 | 37.70879 | 24.69064 | 10365 ft | 319 kts | 318° |
| 2026-04-21 15:01 | 37.72530 | 24.67280 | 9875 ft | 306 kts | 318° |
| 2026-04-21 15:02 | 37.74118 | 24.65562 | 9354 ft | 295 kts | 318° |
| 2026-04-21 15:02 | 37.75653 | 24.63900 | 8831 ft | 286 kts | 318° |
| 2026-04-21 15:02 | 37.76666 | 24.62803 | 8487 ft | 281 kts | 317° |
| 2026-04-21 15:02 | 37.78130 | 24.61216 | 7982 ft | 274 kts | 317° |
| 2026-04-21 15:03 | 37.79563 | 24.59660 | 7484 ft | 268 kts | 317° |
| 2026-04-21 15:03 | 37.80949 | 24.58156 | 7120 ft | 264 kts | 317° |
| 2026-04-21 15:03 | 37.82352 | 24.56632 | 7028 ft | 267 kts | 317° |
| 2026-04-21 15:03 | 37.83693 | 24.54982 | 6674 ft | 269 kts | 308° |
| 2026-04-21 15:04 | 37.84827 | 24.53142 | 6318 ft | 262 kts | 306° |
| 2026-04-21 15:04 | 37.85912 | 24.51302 | 5933 ft | 261 kts | 305° |
| 2026-04-21 15:04 | 37.86995 | 24.49457 | 5561 ft | 260 kts | 305° |
| 2026-04-21 15:04 | 37.88074 | 24.47626 | 5188 ft | 259 kts | 305° |
| 2026-04-21 15:05 | 37.89157 | 24.45803 | 4822 ft | 258 kts | 305° |
| 2026-04-21 15:05 | 37.91332 | 24.42187 | 4079 ft | 258 kts | 305° |
| 2026-04-21 15:05 | 37.92435 | 24.40371 | 4020 ft | 262 kts | 305° |
| 2026-04-21 15:06 | 37.93554 | 24.38539 | 3993 ft | 263 kts | 305° |
| 2026-04-21 15:06 | 37.94670 | 24.36723 | 3987 ft | 258 kts | 305° |
| 2026-04-21 15:06 | 37.95743 | 24.34987 | 3971 ft | 249 kts | 305° |
| 2026-04-21 15:06 | 37.96803 | 24.33271 | 3973 ft | 246 kts | 305° |
| 2026-04-21 15:07 | 37.97854 | 24.31571 | 3997 ft | 245 kts | 305° |
| 2026-04-21 15:07 | 37.98906 | 24.29874 | 3978 ft | 245 kts | 305° |
| 2026-04-21 15:07 | 37.99956 | 24.28179 | 3978 ft | 244 kts | 305° |
| 2026-04-21 15:07 | 38.01009 | 24.26478 | 3773 ft | 246 kts | 305° |
| 2026-04-21 15:08 | 38.02062 | 24.24776 | 3511 ft | 241 kts | 305° |
| 2026-04-21 15:08 | 38.03082 | 24.23141 | 3237 ft | 232 kts | 304° |
| 2026-04-21 15:08 | 38.04082 | 24.21578 | 2969 ft | 223 kts | 305° |
| 2026-04-21 15:08 | 38.05049 | 24.20082 | 2726 ft | 221 kts | 304° |
| 2026-04-21 15:09 | 38.06032 | 24.18594 | 2542 ft | 220 kts | 305° |
| 2026-04-21 15:09 | 38.07014 | 24.17121 | 2499 ft | 216 kts | 305° |
| 2026-04-21 15:09 | 38.07959 | 24.15697 | 2491 ft | 205 kts | 302° |
| 2026-04-21 15:09 | 38.08455 | 24.14097 | 2469 ft | 188 kts | 266° |
| 2026-04-21 15:10 | 38.08166 | 24.12569 | 2488 ft | 172 kts | 246° |
| 2026-04-21 15:10 | 38.07712 | 24.11145 | 2504 ft | 174 kts | 245° |
| 2026-04-21 15:10 | 38.07251 | 24.09709 | 2490 ft | 179 kts | 245° |
| 2026-04-21 15:10 | 38.06759 | 24.08206 | 2499 ft | 187 kts | 245° |
| 2026-04-21 15:11 | 38.06263 | 24.06684 | 2490 ft | 185 kts | 245° |
| 2026-04-21 15:11 | 38.05748 | 24.05218 | 2463 ft | 176 kts | 237° |
| 2026-04-21 15:11 | 38.04908 | 24.04158 | 2492 ft | 170 kts | 221° |
| 2026-04-21 15:11 | 38.03976 | 24.03191 | 2485 ft | 176 kts | 219° |
| 2026-04-21 15:12 | 38.03007 | 24.02242 | 2334 ft | 179 kts | 217° |
| 2026-04-21 15:12 | 38.02038 | 24.01315 | 2102 ft | 168 kts | 218° |
| 2026-04-21 15:12 | 38.01140 | 24.00459 | 1874 ft | 156 kts | 217° |
| 2026-04-21 15:12 | 38.00320 | 23.99676 | 1734 ft | 135 kts | 216° |
| 2026-04-21 15:13 | 37.99611 | 23.98999 | 1532 ft | 125 kts | 217° |
| 2026-04-21 15:13 | 37.98902 | 23.98323 | 1373 ft | 130 kts | 215° |
| 2026-04-21 15:13 | 37.98164 | 23.97619 | 1213 ft | 133 kts | 216° |
| 2026-04-21 15:13 | 37.97426 | 23.96915 | 1012 ft | 132 kts | 216° |
| 2026-04-21 15:14 | 37.96703 | 23.96224 | 840 ft | 129 kts | 215° |
| 2026-04-21 15:14 | 37.95982 | 23.95536 | 676 ft | 130 kts | 218° |
| 2026-04-21 15:14 | 37.95260 | 23.94847 | 488 ft | 130 kts | 218° |
| 2026-04-21 15:14 | 37.94549 | 23.94173 | 320 ft | 124 kts | 217° |
| 2026-04-21 15:15 | 37.93939 | 23.93593 | 294 ft | 91 kts | 217° |
| 2026-04-21 15:15 | 37.93583 | 23.93254 | 293 ft | 34 kts | 217° |
| 2026-04-21 15:15 | 37.93396 | 23.93150 | 291 ft | 25 kts | 191° |
| 2026-04-21 15:15 | 37.93268 | 23.93148 | 299 ft | 14 kts | 139° |
| 2026-04-21 15:16 | 37.93288 | 23.93251 | 298 ft | 14 kts | 37° |
| 2026-04-21 15:16 | 37.93362 | 23.93323 | 299 ft | 13 kts | 37° |
| 2026-04-21 15:16 | 37.93434 | 23.93392 | 298 ft | 13 kts | 37° |
| 2026-04-21 15:16 | 37.93514 | 23.93467 | 299 ft | 16 kts | 36° |
| 2026-04-21 15:17 | 37.93602 | 23.93550 | 299 ft | 16 kts | 37° |
| 2026-04-21 15:17 | 37.93690 | 23.93632 | 298 ft | 16 kts | 35° |
| 2026-04-21 15:17 | 37.93787 | 23.93721 | 298 ft | 18 kts | 37° |
| 2026-04-21 15:17 | 37.93893 | 23.93823 | 300 ft | 20 kts | 37° |
| 2026-04-21 15:18 | 37.94005 | 23.93929 | 301 ft | 20 kts | 37° |
| 2026-04-21 15:18 | 37.94121 | 23.94041 | 301 ft | 22 kts | 37° |
| 2026-04-21 15:18 | 37.94246 | 23.94162 | 301 ft | 23 kts | 37° |
| 2026-04-21 15:18 | 37.94378 | 23.94287 | 301 ft | 25 kts | 37° |
| 2026-04-21 15:19 | 37.94516 | 23.94418 | 302 ft | 17 kts | 36° |
| 2026-04-21 15:19 | 37.94614 | 23.94511 | 301 ft | 18 kts | 37° |
| 2026-04-21 15:19 | 37.94681 | 23.94632 | 301 ft | 18 kts | 114° |
| 2026-04-21 15:19 | 37.94599 | 23.94767 | 300 ft | 20 kts | 128° |
| 2026-04-21 15:20 | 37.94512 | 23.94910 | 301 ft | 20 kts | 124° |
| 2026-04-21 15:20 | 37.94430 | 23.95054 | 300 ft | 20 kts | 127° |
| 2026-04-21 15:20 | 37.94359 | 23.95174 | 300 ft | 17 kts | 127° |
| 2026-04-21 15:20 | 37.94285 | 23.95297 | 300 ft | 17 kts | 128° |
| 2026-04-21 15:21 | 37.94241 | 23.95379 | 300 ft | 7 kts | 95° |
| 2026-04-21 15:21 | 37.94272 | 23.95424 | 300 ft | 5 kts | 38° |
| 2026-04-21 15:21 | 37.94291 | 23.95442 | 301 ft | 2 kts | 37° |
| 2026-04-21 15:21 | 37.94295 | 23.95445 | 300 ft | 0 kts | 37° |